Time;durP1;ratioP1;P1;durP2;ratioP2;P2;SDS_P1;SDS_P2;PMS_P1;PMS_P2;Temp;Humidity;BMP_temperature;BMP_pressure;BME280_temperature;BME280_humidity;BME280_pressure;Samples;Min_cycle;Max_cycle;Signal;HPM_P1;HPM_P2
2023/09/08 00:00:40;;;;;;;10.68;5.70;;;;;;;10.99;57.52;101576.37;1716682;82;21381;-55
2023/09/08 00:03:47;;;;;;;11.95;4.70;;;;;;;10.93;57.54;101575.57;1707923;82;21369;-55
2023/09/08 00:06:54;;;;;;;10.98;5.15;;;;;;;10.91;57.73;101573.52;1716665;82;21945;-55
2023/09/08 00:10:01;;;;;;;14.38;5.35;;;;;;;10.89;57.87;101571.42;1716805;82;21890;-55
2023/09/08 00:12:59;;;;;;;21.33;6.03;;;;;;;10.88;58.10;101569.70;1717246;83;21401;-55
2023/09/08 00:15:53;;;;;;;9.40;4.85;;;;;;;10.88;58.24;101570.55;1716830;82;21373;-55
2023/09/08 00:19:00;;;;;;;11.48;5.08;;;;;;;10.86;58.27;101572.56;1716534;83;21325;-54
2023/09/08 00:22:08;;;;;;;9.98;5.03;;;;;;;10.83;58.27;101569.28;1717123;83;21893;-54
2023/09/08 00:25:14;;;;;;;18.98;6.50;;;;;;;10.79;58.39;101571.94;1718086;82;21345;-54
2023/09/08 00:28:20;;;;;;;14.90;5.95;;;;;;;10.80;58.50;101568.21;1716779;83;21409;-56
2023/09/08 00:31:27;;;;;;;12.80;5.62;;;;;;;10.78;58.58;101568.86;1720312;81;21361;-54
2023/09/08 00:34:33;;;;;;;15.48;5.78;;;;;;;10.75;58.58;101571.90;1730923;79;21378;-55
2023/09/08 00:37:40;;;;;;;18.48;6.50;;;;;;;10.66;58.56;101564.55;1769404;80;21804;-55
2023/09/08 00:40:46;;;;;;;15.53;6.12;;;;;;;10.63;58.78;101569.82;1769514;79;21227;-55
2023/09/08 00:43:52;;;;;;;11.15;5.53;;;;;;;10.62;58.90;101564.50;1769825;80;21778;-55
2023/09/08 00:46:58;;;;;;;16.35;6.17;;;;;;;10.62;58.94;101569.97;1769492;79;21212;-55
2023/09/08 00:50:03;;;;;;;12.82;6.37;;;;;;;10.59;59.04;101576.09;1770029;79;21392;-55
2023/09/08 00:53:11;;;;;;;14.60;6.05;;;;;;;10.58;59.14;101571.64;1769400;80;21169;-54
2023/09/08 00:56:18;;;;;;;17.10;6.08;;;;;;;10.58;59.23;101576.77;1770683;79;21291;-55
2023/09/08 00:59:24;;;;;;;13.25;6.08;;;;;;;10.50;59.16;101579.72;1769661;80;21208;-55
2023/09/08 01:02:32;;;;;;;11.55;6.08;;;;;;;10.42;59.17;101579.58;1769638;80;21350;-56
2023/09/08 01:05:40;;;;;;;15.13;5.62;;;;;;;10.37;59.28;101584.62;1769809;79;21867;-55
2023/09/08 01:08:49;;;;;;;13.22;5.50;;;;;;;10.36;59.43;101580.17;1769977;80;21286;-54
2023/09/08 01:12:00;;;;;;;17.30;5.87;;;;;;;10.36;59.59;101575.19;1769563;79;21389;-55
2023/09/08 01:15:05;;;;;;;10.13;5.30;;;;;;;10.37;59.69;101581.02;1769438;79;21435;-56
2023/09/08 01:18:12;;;;;;;11.38;5.83;;;;;;;10.31;59.55;101580.23;1769675;80;21334;-56
2023/09/08 01:21:57;;;;;;;12.40;6.33;;;;;;;10.27;59.73;101585.16;1769665;79;21316;-54
2023/09/08 01:25:13;;;;;;;15.75;6.58;;;;;;;10.27;59.83;101578.81;1769616;79;21393;-54
2023/09/08 01:28:20;;;;;;;13.18;6.20;;;;;;;10.22;59.92;101584.72;1769694;80;21346;-55
2023/09/08 01:31:29;;;;;;;12.23;6.33;;;;;;;10.14;59.89;101581.84;1769774;79;21344;-55
2023/09/08 01:34:36;;;;;;;14.60;6.03;;;;;;;10.09;59.92;101580.52;1769655;79;21243;-55
2023/09/08 01:37:43;;;;;;;12.18;6.05;;;;;;;10.05;60.08;101586.75;1769286;81;21272;-55
2023/09/08 01:40:49;;;;;;;13.22;5.35;;;;;;;10.06;60.29;101583.02;1753273;80;21346;-55
2023/09/08 01:43:55;;;;;;;10.10;5.83;;;;;;;10.08;60.44;101576.95;1769557;80;21335;-55
2023/09/08 01:47:01;;;;;;;11.55;5.40;;;;;;;10.11;60.58;101574.41;1768868;81;21160;-55
2023/09/08 01:50:07;;;;;;;8.63;5.00;;;;;;;10.10;60.65;101561.23;1769313;79;21862;-54
2023/09/08 01:53:14;;;;;;;15.25;6.15;;;;;;;10.09;60.60;101568.22;1769310;81;21181;-54
2023/09/08 01:56:22;;;;;;;11.83;5.10;;;;;;;10.02;60.54;101558.84;1769281;79;21358;-54
2023/09/08 01:59:28;;;;;;;12.98;5.67;;;;;;;10.01;60.67;101558.45;1769387;81;21366;-55
2023/09/08 02:02:35;;;;;;;16.85;5.92;;;;;;;9.99;60.74;101561.34;1769531;80;21749;-54
2023/09/08 02:05:42;;;;;;;13.62;5.55;;;;;;;9.97;60.81;101558.41;1769347;79;21343;-54
2023/09/08 02:08:50;;;;;;;13.38;5.62;;;;;;;9.95;60.86;101561.28;1753631;81;21373;-54
2023/09/08 02:11:56;;;;;;;21.50;5.70;;;;;;;9.93;60.87;101553.71;1769310;79;21854;-56
2023/09/08 02:15:04;;;;;;;13.40;5.28;;;;;;;9.88;60.81;101551.91;1769304;79;21721;-55
2023/09/08 02:18:13;;;;;;;11.83;4.80;;;;;;;9.87;61.00;101540.61;1769372;80;22089;-54
2023/09/08 02:21:19;;;;;;;12.82;6.03;;;;;;;9.86;61.14;101545.70;1769276;79;21397;-54
2023/09/08 02:24:26;;;;;;;14.30;5.42;;;;;;;9.84;61.21;101538.17;1769358;81;21334;-55
2023/09/08 02:27:33;;;;;;;11.57;5.83;;;;;;;9.84;61.30;101546.87;1769181;81;21378;-56
2023/09/08 02:30:39;;;;;;;11.93;5.65;;;;;;;9.81;61.27;101546.66;1769331;79;21358;-54
2023/09/08 02:33:46;;;;;;;14.87;6.17;;;;;;;9.80;61.39;101546.28;1769191;81;21361;-54
2023/09/08 02:36:52;;;;;;;15.72;6.67;;;;;;;9.80;61.48;101546.28;1767776;80;21854;-55
2023/09/08 02:39:58;;;;;;;19.60;7.55;;;;;;;9.79;61.58;101539.09;1769526;79;21354;-55
2023/09/08 02:43:04;;;;;;;13.30;6.20;;;;;;;9.77;61.64;101547.94;1769294;81;21346;-55
2023/09/08 02:46:12;;;;;;;11.65;5.78;;;;;;;9.77;61.72;101541.09;1769347;79;21354;-54
2023/09/08 02:49:21;;;;;;;10.23;5.12;;;;;;;9.74;61.74;101538.66;1769322;81;21397;-55
2023/09/08 02:52:27;;;;;;;14.95;6.50;;;;;;;9.64;61.55;101545.97;1769398;81;21381;-55
2023/09/08 02:55:34;;;;;;;12.98;5.90;;;;;;;9.56;61.54;101542.23;1769208;79;21350;-54
2023/09/08 02:58:39;;;;;;;12.43;6.25;;;;;;;9.55;61.76;101542.73;1769321;81;21247;-54
2023/09/08 03:01:46;;;;;;;21.75;8.35;;;;;;;9.55;61.83;101550.05;1769350;79;21401;-55
2023/09/08 03:04:53;;;;;;;19.67;6.70;;;;;;;9.51;61.89;101549.98;1769291;79;21334;-55
2023/09/08 03:08:00;;;;;;;17.30;6.20;;;;;;;9.50;61.99;101545.53;1769292;81;21213;-55
2023/09/08 03:11:07;;;;;;;16.75;6.75;;;;;;;9.52;62.18;101548.97;1769367;79;21204;-55
2023/09/08 03:14:14;;;;;;;14.68;5.92;;;;;;;9.54;62.27;101557.91;1769333;80;21708;-55
2023/09/08 03:17:21;;;;;;;16.87;6.58;;;;;;;9.50;62.14;101561.41;1769215;81;21366;-56
2023/09/08 03:20:28;;;;;;;16.70;6.10;;;;;;;9.45;62.07;101564.22;1769789;79;21203;-56
2023/09/08 03:23:34;;;;;;;10.45;6.00;;;;;;;9.44;62.26;101552.41;1769399;79;21203;-55
2023/09/08 03:26:40;;;;;;;14.33;6.00;;;;;;;9.47;62.40;101547.16;1796166;79;21240;-54
2023/09/08 03:29:46;;;;;;;19.92;5.70;;;;;;;9.50;62.54;101545.53;1794355;78;21305;-55
2023/09/08 03:32:51;;;;;;;20.32;5.70;;;;;;;9.52;62.56;101543.50;1800832;79;21331;-56
2023/09/08 03:35:59;;;;;;;15.05;6.20;;;;;;;9.49;62.44;101547.39;1800636;78;21247;-55
2023/09/08 03:39:06;;;;;;;15.18;6.15;;;;;;;9.48;62.52;101547.02;1796047;79;21224;-56
2023/09/08 03:42:12;;;;;;;11.60;6.00;;;;;;;9.48;62.54;101540.70;1798457;79;21374;-57
2023/09/08 03:45:18;;;;;;;13.08;5.87;;;;;;;9.51;62.71;101538.56;1782009;78;21343;-55
2023/09/08 03:48:25;;;;;;;15.32;6.08;;;;;;;9.56;62.86;101536.77;1798370;79;21335;-55
2023/09/08 03:51:30;;;;;;;12.28;6.50;;;;;;;9.60;62.95;101543.17;1780478;79;21831;-55
2023/09/08 03:54:31;;;;;;;23.67;6.15;;;;;;;9.66;63.11;101541.23;1798577;79;21893;-54
2023/09/08 03:57:36;;;;;;;16.37;6.10;;;;;;;9.73;63.24;101542.90;1798501;79;21398;-56
2023/09/08 04:00:43;;;;;;;18.35;6.55;;;;;;;9.81;63.34;101540.32;1798932;78;21334;-56
2023/09/08 04:03:49;;;;;;;15.53;7.05;;;;;;;9.88;63.40;101535.49;1798415;79;21390;-56
2023/09/08 04:06:55;;;;;;;12.23;6.30;;;;;;;9.94;63.44;101534.91;1798996;78;21350;-56
2023/09/08 04:10:03;;;;;;;17.00;6.65;;;;;;;10.00;63.56;101530.75;1798395;78;21338;-56
2023/09/08 04:13:10;;;;;;;15.05;6.53;;;;;;;10.06;63.64;101537.02;1799067;79;21354;-56
2023/09/08 04:16:16;;;;;;;10.18;5.75;;;;;;;10.11;63.77;101538.35;1798478;78;21378;-55
2023/09/08 04:19:23;;;;;;;13.60;6.50;;;;;;;10.17;63.85;101547.34;1799008;79;21332;-55
2023/09/08 04:22:29;;;;;;;16.17;6.28;;;;;;;10.24;63.89;101541.63;1798598;79;21870;-57
2023/09/08 04:25:36;;;;;;;17.27;6.92;;;;;;;10.32;63.97;101545.03;1798528;78;21227;-56
2023/09/08 04:28:41;;;;;;;13.43;6.75;;;;;;;10.37;64.06;101544.06;1798519;79;21327;-56
2023/09/08 04:31:48;;;;;;;17.70;7.78;;;;;;;10.42;64.12;101546.73;1794531;79;21307;-56
2023/09/08 04:34:55;;;;;;;16.45;8.48;;;;;;;10.50;64.21;101545.99;1798046;79;21304;-56
2023/09/08 04:38:00;;;;;;;12.95;6.78;;;;;;;10.58;64.27;101550.23;1774998;81;21425;-56
2023/09/08 04:41:05;;;;;;;18.82;7.53;;;;;;;10.64;64.35;101550.16;1800514;78;21168;-56
2023/09/08 04:44:13;;;;;;;18.40;7.85;;;;;;;10.73;64.42;101552.00;1778070;80;21938;-55
2023/09/08 04:47:18;;;;;;;16.90;8.05;;;;;;;10.80;64.43;101552.62;1800892;79;21680;-57
2023/09/08 04:50:24;;;;;;;18.12;7.80;;;;;;;10.87;64.48;101557.88;1777892;79;21354;-55
2023/09/08 04:53:33;;;;;;;14.23;7.20;;;;;;;10.97;64.53;101553.73;1800012;79;21398;-58
2023/09/08 04:56:39;;;;;;;15.58;7.05;;;;;;;11.07;64.62;101553.20;1770174;80;21381;-58
2023/09/08 04:59:47;;;;;;;24.15;13.15;;;;;;;11.16;64.71;101547.64;1764766;80;21359;-60
2023/09/08 05:02:55;;;;;;;32.53;17.00;;;;;;;11.27;64.77;101557.56;1794443;79;21421;-60
2023/09/08 05:06:03;;;;;;;18.00;7.95;;;;;;;11.37;64.83;101554.28;1747521;80;21405;-60
2023/09/08 05:09:10;;;;;;;18.10;7.55;;;;;;;11.48;64.91;101549.42;1743589;80;21378;-60
2023/09/08 05:12:17;;;;;;;13.15;6.17;;;;;;;11.59;64.98;101541.52;1767904;80;21907;-61
2023/09/08 05:15:25;;;;;;;12.58;6.30;;;;;;;11.72;65.10;101532.41;1757685;79;21267;-61
2023/09/08 05:18:33;;;;;;;12.50;6.75;;;;;;;11.84;65.16;101536.14;1766982;81;21225;-60
2023/09/08 05:21:40;;;;;;;15.48;6.60;;;;;;;11.98;65.24;101532.02;1767263;80;21406;-61
2023/09/08 05:24:45;;;;;;;13.72;6.70;;;;;;;12.12;65.33;101528.71;1797429;78;21204;-60
2023/09/08 05:27:50;;;;;;;9.63;5.17;;;;;;;12.27;65.40;101526.27;1769177;81;21347;-60
2023/09/08 05:31:00;;;;;;;12.13;6.30;;;;;;;12.42;65.45;101524.16;1788701;79;21216;-60
2023/09/08 05:34:06;;;;;;;13.10;6.50;;;;;;;12.56;65.46;101519.98;1788409;79;21386;-62
2023/09/08 05:37:11;;;;;;;13.35;6.65;;;;;;;12.69;65.52;101519.89;1764139;80;21738;-62
2023/09/08 05:40:20;;;;;;;16.40;6.30;;;;;;;12.82;65.52;101517.58;1809181;77;21192;-62
2023/09/08 05:43:24;;;;;;;14.73;6.28;;;;;;;12.94;65.57;101522.26;1799330;79;21196;-62
2023/09/08 05:46:30;;;;;;;14.40;7.95;;;;;;;13.06;65.59;101526.50;1797153;78;21270;-61
2023/09/08 05:49:36;;;;;;;15.15;6.78;;;;;;;13.19;65.61;101535.17;1770078;79;21777;-61
2023/09/08 05:52:42;;;;;;;11.73;5.90;;;;;;;13.32;65.64;101532.29;1775919;79;21323;-63
2023/09/08 05:55:41;;;;;;;13.22;6.70;;;;;;;13.46;65.61;101527.53;1769221;79;21299;-62
2023/09/08 05:58:48;;;;;;;12.30;5.67;;;;;;;13.60;65.61;101527.42;1794543;79;21362;-59
2023/09/08 06:01:55;;;;;;;11.63;5.28;;;;;;;13.75;65.60;101527.64;1770462;79;21216;-59
2023/09/08 06:05:02;;;;;;;11.35;5.28;;;;;;;13.89;65.61;101524.22;1760469;79;21223;-59
2023/09/08 06:08:08;;;;;;;8.60;4.35;;;;;;;14.02;65.64;101520.43;1770204;79;21863;-60
2023/09/08 06:11:14;;;;;;;9.40;4.12;;;;;;;14.16;65.64;101509.60;1766821;79;21737;-60
2023/09/08 06:14:21;;;;;;;6.55;3.80;;;;;;;14.34;65.62;101516.35;1760037;80;21201;-63
2023/09/08 06:17:37;;;;;;;8.68;3.77;;;;;;;14.50;65.59;101508.95;1762826;80;21216;-62
2023/09/08 06:20:54;;;;;;;10.53;4.30;;;;;;;14.64;65.57;101511.50;1772637;79;21196;-61
2023/09/08 06:24:01;;;;;;;8.78;3.85;;;;;;;14.79;65.56;101510.61;1750601;81;21381;-61
2023/09/08 06:27:08;;;;;;;9.88;3.60;;;;;;;14.95;65.51;101506.44;1730020;82;21225;-59
2023/09/08 06:30:17;;;;;;;7.50;2.87;;;;;;;15.10;65.40;101505.70;1732033;81;21305;-61
2023/09/08 06:33:25;;;;;;;6.35;2.58;;;;;;;15.26;65.34;101511.16;1763748;81;21263;-57
2023/09/08 06:36:30;;;;;;;7.40;2.70;;;;;;;15.43;65.27;101504.05;1764208;80;21304;-59
2023/09/08 06:39:36;;;;;;;6.42;2.10;;;;;;;15.61;65.19;101503.27;1765278;81;21283;-60
2023/09/08 06:42:43;;;;;;;4.33;2.30;;;;;;;15.82;65.11;101503.50;1722805;82;21263;-60
2023/09/08 06:45:57;;;;;;;5.17;2.35;;;;;;;15.98;64.98;101504.73;1736036;80;21390;-57
2023/09/08 06:49:02;;;;;;;7.37;2.55;;;;;;;16.14;64.84;101496.88;1737509;81;21363;-60
2023/09/08 06:52:08;;;;;;;5.67;2.50;;;;;;;16.30;64.68;101497.58;1722997;83;21232;-57
2023/09/08 06:55:16;;;;;;;8.18;2.35;;;;;;;16.43;64.51;101493.67;1736934;81;21360;-55
2023/09/08 06:58:22;;;;;;;8.38;1.92;;;;;;;16.58;64.37;101500.66;1719202;82;21759;-59
2023/09/08 07:01:28;;;;;;;7.33;1.80;;;;;;;16.70;64.15;101490.02;1742766;81;21243;-58
2023/09/08 07:04:34;;;;;;;4.97;1.72;;;;;;;16.80;63.96;101483.66;1756091;80;21347;-61
2023/09/08 07:07:42;;;;;;;5.35;1.55;;;;;;;16.92;63.75;101480.78;1759998;81;21185;-63
2023/09/08 07:10:50;;;;;;;3.98;1.90;;;;;;;17.01;63.51;101478.23;1746468;81;21196;-59
2023/09/08 07:13:56;;;;;;;5.60;1.80;;;;;;;17.10;63.33;101486.77;1740220;81;21268;-57
2023/09/08 07:17:03;;;;;;;4.42;1.70;;;;;;;17.18;63.08;101470.94;1745744;80;21753;-58
2023/09/08 07:20:11;;;;;;;4.55;1.72;;;;;;;17.27;62.89;101464.75;1742866;81;21273;-60
2023/09/08 07:23:18;;;;;;;2.75;1.62;;;;;;;17.36;62.67;101458.08;1720154;83;21380;-59
2023/09/08 07:26:24;;;;;;;4.12;1.50;;;;;;;17.42;62.43;101454.02;1719297;82;21391;-56
2023/09/08 07:29:30;;;;;;;4.47;1.60;;;;;;;17.48;62.20;101446.86;1719566;83;21414;-55
2023/09/08 07:32:38;;;;;;;4.05;2.10;;;;;;;17.58;62.07;101448.80;1731366;82;21368;-59
2023/09/08 07:35:46;;;;;;;3.27;1.45;;;;;;;17.67;61.80;101446.23;1747823;81;21406;-59
2023/09/08 07:38:52;;;;;;;4.17;1.72;;;;;;;17.75;61.63;101440.56;1750563;80;21182;-57
2023/09/08 07:42:00;;;;;;;2.72;1.30;;;;;;;17.83;61.41;101422.44;1743582;80;21756;-56
2023/09/08 07:45:09;;;;;;;4.05;1.50;;;;;;;17.92;61.20;101428.72;1768697;79;21220;-59
2023/09/08 07:48:14;;;;;;;4.90;1.92;;;;;;;17.99;60.91;101423.56;1767118;80;21290;-58
2023/09/08 07:51:20;;;;;;;4.37;1.42;;;;;;;18.02;60.62;101420.39;1760991;79;21531;-58
2023/09/08 07:54:25;;;;;;;6.97;1.60;;;;;;;18.07;60.33;101412.86;1766331;81;21200;-62
2023/09/08 07:57:30;;;;;;;4.37;1.50;;;;;;;18.08;60.05;101412.66;1793356;79;21195;-60
2023/09/08 08:00:36;;;;;;;4.47;1.55;;;;;;;18.17;59.91;101414.77;1766017;79;21343;-57
2023/09/08 08:03:43;;;;;;;2.95;1.30;;;;;;;18.25;59.71;101413.24;1778454;79;21563;-62
2023/09/08 08:06:51;;;;;;;4.55;1.65;;;;;;;18.29;59.46;101411.25;1783848;78;21776;-57
2023/09/08 08:09:58;;;;;;;3.37;1.85;;;;;;;18.38;59.27;101417.00;1792945;78;21199;-59
2023/09/08 08:13:04;;;;;;;2.35;1.47;;;;;;;18.47;59.05;101417.16;1790153;79;21280;-59
2023/09/08 08:16:10;;;;;;;3.27;1.57;;;;;;;18.53;58.72;101413.61;1790752;78;21199;-59
2023/09/08 08:19:17;;;;;;;2.77;1.67;;;;;;;18.57;58.41;101426.00;1771320;79;21327;-57
2023/09/08 08:22:24;;;;;;;7.05;1.92;;;;;;;18.59;58.09;101414.18;1768154;80;21190;-59
2023/09/08 08:25:31;;;;;;;4.60;1.95;;;;;;;18.61;57.87;101407.91;1785763;78;21251;-57
2023/09/08 08:28:35;;;;;;;4.83;2.00;;;;;;;18.68;57.72;101412.95;1782392;79;21259;-59
2023/09/08 08:31:41;;;;;;;5.70;1.65;;;;;;;18.74;57.44;101402.42;1799654;78;21215;-58
2023/09/08 08:34:47;;;;;;;5.60;2.02;;;;;;;18.81;57.25;101397.78;1798823;78;21779;-58
2023/09/08 08:37:54;;;;;;;5.30;1.90;;;;;;;18.90;57.10;101399.31;1781659;79;21656;-63
2023/09/08 08:41:00;;;;;;;7.97;2.33;;;;;;;18.97;56.87;101380.80;1798044;78;21220;-59
2023/09/08 08:44:05;;;;;;;6.20;2.10;;;;;;;19.04;56.56;101380.28;1729769;78;21196;-58
2023/09/08 08:47:12;;;;;;;5.40;1.92;;;;;;;19.10;56.33;101380.86;1727260;83;21403;-59
2023/09/08 08:50:17;;;;;;;4.75;2.08;;;;;;;19.17;56.06;101366.45;1749700;80;21347;-59
2023/09/08 08:53:25;;;;;;;8.90;1.90;;;;;;;19.22;55.80;101376.41;1735823;81;21895;-59
2023/09/08 08:56:30;;;;;;;4.37;2.40;;;;;;;19.31;55.66;101364.08;1735895;81;21331;-55
2023/09/08 08:59:36;;;;;;;5.08;2.45;;;;;;;19.37;55.41;101356.85;1749095;80;21374;-58
2023/09/08 09:02:48;;;;;;;6.15;1.90;;;;;;;19.44;55.20;101361.04;1726453;82;21359;-58
2023/09/08 09:05:55;;;;;;;2.77;1.62;;;;;;;19.48;54.92;101347.91;1752489;80;21379;-56
2023/09/08 09:09:01;;;;;;;3.62;1.50;;;;;;;19.54;54.67;101350.36;1729477;83;21760;-58
2023/09/08 09:12:07;;;;;;;3.55;1.90;;;;;;;19.61;54.43;101346.55;1751884;81;21579;-58
2023/09/08 09:15:16;;;;;;;2.15;1.40;;;;;;;19.69;54.25;101344.09;1738819;81;21386;-58
2023/09/08 09:18:22;;;;;;;2.95;1.50;;;;;;;19.74;53.96;101341.55;1708665;84;21216;-56
2023/09/08 09:21:28;;;;;;;3.62;1.55;;;;;;;19.76;53.66;101339.38;1722166;82;21228;-58
2023/09/08 09:24:49;;;;;;;4.62;1.87;;;;;;;19.79;53.43;101336.21;1709520;82;21231;-57
2023/09/08 09:28:03;;;;;;;5.12;1.52;;;;;;;19.87;53.22;101344.34;1721881;83;21229;-58
2023/09/08 09:31:11;;;;;;;2.80;1.55;;;;;;;19.91;52.99;101342.31;1738017;82;21378;-59
2023/09/08 09:34:17;;;;;;;3.62;1.70;;;;;;;20.01;52.83;101334.94;1749776;82;21281;-59
2023/09/08 09:37:25;;;;;;;2.92;1.37;;;;;;;20.11;52.63;101338.12;1738308;82;21339;-58
2023/09/08 09:40:36;;;;;;;5.67;1.65;;;;;;;20.12;52.29;101330.11;1689274;84;21457;-58
2023/09/08 09:43:44;;;;;;;3.50;1.47;;;;;;;20.13;51.99;101328.52;1723529;83;21197;-57
2023/09/08 09:46:54;;;;;;;3.12;1.42;;;;;;;20.19;51.78;101315.16;1719387;82;21411;-55
2023/09/08 09:50:03;;;;;;;4.37;1.70;;;;;;;20.28;51.68;101311.63;1704579;83;21618;-56
2023/09/08 09:53:22;;;;;;;2.45;1.42;;;;;;;20.36;51.44;101298.89;1735481;82;21217;-55
2023/09/08 09:56:28;;;;;;;3.75;1.60;;;;;;;20.41;51.12;101300.45;1703622;81;21222;-60
2023/09/08 09:59:35;;;;;;;4.33;1.70;;;;;;;20.47;50.91;101300.44;1731017;82;21303;-56
2023/09/08 10:02:42;;;;;;;4.60;1.75;;;;;;;20.51;50.65;101289.22;1731780;82;21920;-55
2023/09/08 10:05:49;;;;;;;4.15;1.55;;;;;;;20.57;50.41;101280.52;1728434;82;21248;-56
2023/09/08 10:08:55;;;;;;;4.40;1.50;;;;;;;20.62;50.20;101274.63;1705256;82;21242;-57
2023/09/08 10:12:00;;;;;;;3.20;1.55;;;;;;;20.73;50.07;101271.68;1719826;83;21219;-58
2023/09/08 10:15:07;;;;;;;2.90;1.47;;;;;;;20.79;49.77;101270.27;1726283;81;21708;-56
2023/09/08 10:18:15;;;;;;;4.35;1.75;;;;;;;20.87;49.52;101266.37;1708328;82;21263;-57
2023/09/08 10:21:21;;;;;;;4.90;1.70;;;;;;;20.94;49.22;101253.81;1713824;81;21554;-57
2023/09/08 10:24:33;;;;;;;3.35;1.37;;;;;;;21.02;49.01;101250.28;1726525;82;21885;-56
2023/09/08 10:27:41;;;;;;;5.70;1.92;;;;;;;21.10;48.83;101249.16;1727654;82;21240;-58
2023/09/08 10:30:48;;;;;;;5.30;1.77;;;;;;;21.20;48.62;101246.75;1721280;81;21275;-58
2023/09/08 10:33:54;;;;;;;2.65;1.50;;;;;;;21.23;48.27;101241.55;1721776;81;21935;-57
2023/09/08 10:37:00;;;;;;;3.58;1.52;;;;;;;21.24;48.03;101240.50;1725582;82;21773;-56
2023/09/08 10:40:33;;;;;;;5.05;1.50;;;;;;;21.31;47.84;101246.86;1709334;81;21222;-57
2023/09/08 10:43:37;;;;;;;4.25;1.60;;;;;;;21.41;47.69;101247.23;1727398;82;21389;-58
2023/09/08 10:46:44;;;;;;;10.43;2.42;;;;;;;21.42;47.31;101228.02;1746959;79;21350;-59
2023/09/08 10:49:53;;;;;;;4.03;1.50;;;;;;;21.50;47.18;101231.09;1743298;81;21549;-59
2023/09/08 10:53:23;;;;;;;6.42;1.55;;;;;;;21.62;47.01;101233.45;1765900;80;21255;-59
2023/09/08 10:56:28;;;;;;;12.63;4.05;;;;;;;21.73;46.83;101226.61;1741171;81;21212;-58
2023/09/08 10:59:41;;;;;;;18.55;10.23;;;;;;;21.82;46.64;101223.86;1740010;81;21204;-60
2023/09/08 11:02:57;;;;;;;9.50;5.05;;;;;;;21.91;46.41;101226.66;1778592;79;21200;-60
2023/09/08 11:06:04;;;;;;;5.97;2.17;;;;;;;21.99;46.09;101217.17;1768287;81;21208;-59
2023/09/08 11:09:15;;;;;;;4.87;1.47;;;;;;;22.03;45.80;101208.11;1764522;81;21686;-57
2023/09/08 11:12:24;;;;;;;;;;;;;;;22.08;45.60;101201.31;1752567;81;21161;-58
2023/09/08 11:15:31;;;;;;;5.90;1.80;;;;;;;22.18;45.46;101196.02;1744166;81;20734;-57
2023/09/08 11:18:38;;;;;;;3.33;1.72;;;;;;;22.26;45.28;101191.23;1766085;81;21280;-57
2023/09/08 11:21:49;;;;;;;6.67;2.00;;;;;;;22.33;45.09;101189.20;1765800;79;21534;-55
2023/09/08 11:24:58;;;;;;;5.47;1.52;;;;;;;22.47;45.04;101190.77;1771256;80;21236;-55
2023/09/08 11:28:05;;;;;;;7.30;1.67;;;;;;;22.57;44.75;101179.92;1787661;79;21768;-56
2023/09/08 11:31:12;;;;;;;3.80;1.72;;;;;;;22.67;44.63;101172.70;1790934;79;21757;-56
2023/09/08 11:34:21;;;;;;;3.90;1.50;;;;;;;22.79;44.44;101168.55;1794095;80;21335;-56
2023/09/08 11:37:27;;;;;;;4.45;1.65;;;;;;;22.90;44.21;101166.34;1797101;78;21728;-59
2023/09/08 11:40:34;;;;;;;4.08;1.30;;;;;;;22.95;43.92;101156.72;1797090;78;21343;-56
2023/09/08 11:43:40;;;;;;;4.62;1.50;;;;;;;23.04;43.84;101160.89;1795804;79;21204;-56
2023/09/08 11:46:52;;;;;;;3.10;1.62;;;;;;;23.11;43.65;101147.66;1779847;75;21188;-55
2023/09/08 11:49:55;;;;;;;3.55;1.50;;;;;;;23.17;43.44;101139.71;1785190;78;21760;-56
2023/09/08 11:53:02;;;;;;;6.42;1.87;;;;;;;23.20;43.28;101134.50;1788331;79;21390;-56
2023/09/08 11:56:08;;;;;;;3.22;1.70;;;;;;;23.22;43.06;101125.88;1770785;79;21378;-58
2023/09/08 11:59:15;;;;;;;2.75;1.40;;;;;;;23.28;42.92;101125.80;1766706;81;21370;-59
2023/09/08 12:02:22;;;;;;;2.30;1.30;;;;;;;23.30;42.74;101120.84;1771693;80;21374;-58
2023/09/08 12:05:33;;;;;;;4.87;1.77;;;;;;;23.36;42.59;101134.38;1769360;81;21180;-57
2023/09/08 12:08:39;;;;;;;5.83;1.50;;;;;;;23.34;42.32;101125.41;1719312;82;22057;-57
2023/09/08 12:11:45;;;;;;;7.75;1.45;;;;;;;23.31;42.22;101125.86;1744355;80;21201;-59
2023/09/08 12:14:51;;;;;;;5.58;1.80;;;;;;;23.24;41.96;101119.52;1760543;79;21224;-56
2023/09/08 12:17:58;;;;;;;2.90;1.40;;;;;;;23.12;41.73;101108.30;1758626;80;21805;-56
2023/09/08 12:21:14;;;;;;;6.42;1.55;;;;;;;23.06;41.69;101111.20;1773379;80;21299;-57
2023/09/08 12:24:18;;;;;;;3.75;1.60;;;;;;;22.98;41.52;101099.84;1764944;79;21251;-58
2023/09/08 12:27:26;;;;;;;5.42;2.10;;;;;;;22.90;41.38;101116.08;1756853;80;21200;-54
2023/09/08 12:30:33;;;;;;;5.85;2.02;;;;;;;22.85;41.28;101097.25;1793819;78;21321;-56
2023/09/08 12:33:39;;;;;;;7.20;1.40;;;;;;;22.82;41.14;101078.72;1765507;80;21169;-57
2023/09/08 12:36:45;;;;;;;3.12;1.42;;;;;;;22.77;40.96;101087.81;1790547;79;21192;-56
2023/09/08 12:39:49;;;;;;;4.50;1.42;;;;;;;22.70;40.83;101077.84;1760520;79;21178;-57
2023/09/08 12:42:55;;;;;;;4.35;1.52;;;;;;;22.68;40.81;101087.86;1787479;79;21754;-56
2023/09/08 12:46:03;;;;;;;2.83;1.30;;;;;;;22.67;40.72;101074.14;1756485;79;21297;-55
2023/09/08 12:49:09;;;;;;;2.22;1.30;;;;;;;22.66;40.63;101075.24;1785400;77;21780;-56
2023/09/08 12:52:14;;;;;;;4.90;1.40;;;;;;;22.67;40.57;101065.77;1775333;80;21204;-55
2023/09/08 12:55:21;;;;;;;4.35;1.50;;;;;;;22.69;40.47;101060.23;1775376;79;21203;-55
2023/09/08 12:58:28;;;;;;;6.70;1.70;;;;;;;22.67;40.35;101059.65;1771432;79;21166;-57
2023/09/08 13:01:35;;;;;;;2.42;1.17;;;;;;;22.67;40.26;101049.02;1793408;79;21201;-55
2023/09/08 13:04:41;;;;;;;4.78;1.67;;;;;;;22.66;40.24;101042.57;1754693;79;21172;-57
2023/09/08 13:07:47;;;;;;;4.25;1.40;;;;;;;22.65;40.18;101050.65;1766591;80;21764;-56
2023/09/08 13:10:52;;;;;;;5.33;1.47;;;;;;;22.64;40.13;101033.61;1743255;80;21237;-56
2023/09/08 13:13:58;;;;;;;3.27;1.55;;;;;;;22.64;40.07;101042.52;1734203;82;21220;-55
2023/09/08 13:17:05;;;;;;;4.50;1.80;;;;;;;22.58;39.93;101036.50;1753947;80;21534;-57
2023/09/08 13:20:10;;;;;;;5.17;1.92;;;;;;;22.59;39.89;101028.42;1796191;79;21287;-57
2023/09/08 13:23:18;;;;;;;9.18;2.87;;;;;;;22.59;39.87;101030.67;1721049;80;21204;-54
2023/09/08 13:26:22;;;;;;;4.53;1.80;;;;;;;22.60;39.78;101037.09;1772422;79;21306;-57
2023/09/08 13:29:28;;;;;;;5.87;1.80;;;;;;;22.61;39.73;101029.04;1752994;80;22022;-56
2023/09/08 13:32:33;;;;;;;4.67;1.80;;;;;;;22.58;39.61;101034.53;1783009;79;21492;-57
2023/09/08 13:35:40;;;;;;;6.28;1.92;;;;;;;22.52;39.53;101026.26;1798552;78;21511;-58
2023/09/08 13:38:47;;;;;;;5.72;2.05;;;;;;;22.49;39.51;101017.80;1800003;79;21169;-57
2023/09/08 13:42:00;;;;;;;4.70;1.60;;;;;;;22.47;39.43;101012.16;1800532;78;21189;-59
2023/09/08 13:45:08;;;;;;;5.08;1.62;;;;;;;22.46;39.43;101017.42;1768407;79;21939;-56
2023/09/08 13:48:15;;;;;;;7.22;3.33;;;;;;;22.47;39.38;101006.58;1768757;80;21398;-58
2023/09/08 13:51:23;;;;;;;7.53;2.70;;;;;;;22.46;39.34;101009.05;1797263;78;21204;-56
2023/09/08 13:54:30;;;;;;;9.35;3.65;;;;;;;22.42;39.26;101001.69;1794554;79;21154;-59
2023/09/08 13:57:39;;;;;;;4.87;1.70;;;;;;;22.42;39.28;101004.48;1797693;78;21188;-58
2023/09/08 14:00:48;;;;;;;6.97;2.08;;;;;;;22.41;39.21;100990.77;1799194;79;21256;-56
2023/09/08 14:03:56;;;;;;;5.17;1.82;;;;;;;22.41;39.13;100986.58;1798772;79;21220;-56
2023/09/08 14:07:06;;;;;;;4.12;1.52;;;;;;;22.36;39.06;100994.84;1761904;81;21331;-57
2023/09/08 14:10:16;;;;;;;9.75;2.87;;;;;;;22.33;39.01;100980.80;1798415;78;21212;-56
2023/09/08 14:13:24;;;;;;;4.08;1.90;;;;;;;22.29;39.00;100978.73;1797505;79;21375;-59
2023/09/08 14:16:31;;;;;;;5.72;1.35;;;;;;;22.27;38.93;100974.78;1769444;79;21212;-56
2023/09/08 14:19:39;;;;;;;3.67;1.67;;;;;;;22.25;38.91;100953.24;1775410;79;21204;-57
2023/09/08 14:22:45;;;;;;;5.87;1.82;;;;;;;22.25;38.92;100959.39;1797253;79;21848;-54
2023/09/08 14:25:52;;;;;;;4.22;1.70;;;;;;;22.24;38.92;100950.16;1743149;80;21227;-54
2023/09/08 14:28:59;;;;;;;7.90;1.80;;;;;;;22.25;38.86;100953.81;1743631;82;21705;-56